createdAt,value
2018-02-22T00:10:45.761Z,0.0
2018-02-22T00:23:20.616Z,0.0
2018-02-22T00:59:34.115Z,0.0
2018-02-22T01:13:01.197Z,0.0
2018-02-22T01:26:32.104Z,0.0
2018-02-22T01:40:32.555Z,0.0
2018-02-22T01:53:51.703Z,0.0
2018-02-22T02:05:30.687Z,0.0
2018-02-22T02:18:29.062Z,0.0
2018-02-22T02:44:44.071Z,0.0
2018-02-22T02:57:11.251Z,0.0
2018-02-22T03:09:01.538Z,0.0
2018-02-22T03:20:44.077Z,0.0
2018-02-22T03:34:31.529Z,0.0
2018-02-22T03:47:50.239Z,0.0
2018-02-22T04:00:51.713Z,0.0
2018-02-22T04:13:56.087Z,0.0
2018-02-22T04:29:26.501Z,0.0
2018-02-22T05:11:58.648Z,0.0
2018-02-22T05:52:33.991Z,0.0
2018-02-22T07:25:37.094Z,2332.0
2018-02-22T07:35:51.268Z,3144.0
2018-02-22T07:48:26.236Z,3820.0
2018-02-22T07:58:43.710Z,20960.0
2018-02-22T08:11:17.318Z,27296.0
2018-02-22T08:22:11.281Z,27200.0
2018-02-22T08:36:50.779Z,33952.0
2018-02-22T08:50:27.113Z,39072.0
2018-02-22T09:15:32.019Z,11536.0
2018-02-22T09:27:39.220Z,10200.0
2018-02-22T09:37:54.986Z,7424.0
2018-02-22T09:59:24.424Z,16192.0
2018-02-22T10:09:38.966Z,9124.0
2018-02-22T10:20:24.967Z,6520.0
2018-02-22T10:30:39.513Z,5592.0
2018-02-22T10:40:51.925Z,6848.0
2018-02-22T10:51:38.214Z,7904.0
2018-02-22T11:01:51.758Z,8292.0
2018-02-22T11:12:06.979Z,42176.0
2018-02-22T11:22:21.363Z,28896.0
2018-02-22T11:33:07.075Z,16672.0
2018-02-22T11:43:20.627Z,31264.0
2018-02-22T11:53:35.502Z,55264.0
2018-02-22T12:03:49.685Z,96224.0
2018-02-22T12:14:03.116Z,69344.0
2018-02-22T12:24:48.787Z,90528.0
2018-02-22T12:35:34.816Z,22112.0
2018-02-22T12:45:46.128Z,78848.0
2018-02-22T12:56:00.286Z,74912.0
2018-02-22T13:06:45.637Z,71648.0
2018-02-22T13:16:57.584Z,71904.0
2018-02-22T13:27:12.583Z,71808.0
2018-02-22T13:37:58.282Z,68064.0
2018-02-22T13:48:10.629Z,62816.0
2018-02-22T13:58:24.962Z,63616.0
2018-02-22T14:09:10.416Z,63424.0
2018-02-22T14:19:21.684Z,52736.0
2018-02-22T14:29:35.960Z,49568.0
2018-02-22T14:39:50.353Z,39360.0
2018-02-22T14:50:04.395Z,15392.0
2018-02-22T15:00:19.662Z,14272.0
2018-02-22T15:11:05.183Z,13440.0
2018-02-22T15:21:51.038Z,6152.0
2018-02-22T15:32:05.441Z,5492.0
2018-02-22T15:42:19.621Z,4784.0
2018-02-22T15:52:33.838Z,3972.0
2018-02-22T16:02:47.967Z,3192.0
2018-02-22T16:13:02.438Z,2468.0
2018-02-22T16:23:16.547Z,1796.0
2018-02-22T16:33:30.693Z,1160.0
2018-02-22T16:43:44.959Z,664.0
2018-02-22T16:53:59.074Z,328.0
2018-02-22T17:04:15.266Z,124.0
2018-02-22T17:15:00.817Z,28.0
2018-02-22T17:25:15.260Z,4.0
2018-02-22T17:35:29.151Z,0.0
2018-02-22T17:45:44.443Z,0.0
2018-02-22T17:55:58.680Z,0.0
2018-02-22T18:06:12.755Z,0.0
2018-02-22T18:16:26.985Z,0.0
2018-02-22T18:27:12.744Z,0.0
2018-02-22T18:37:58.527Z,0.0
2018-02-22T18:48:44.772Z,0.0
2018-02-22T18:59:03.986Z,0.0
2018-02-22T19:22:36.758Z,0.0
2018-02-22T19:33:25.247Z,0.0
2018-02-22T20:03:13.331Z,0.0
2018-02-22T20:13:29.252Z,0.0
2018-02-22T20:31:46.448Z,0.0
2018-02-22T20:43:41.308Z,0.0
2018-02-22T20:53:55.462Z,0.0
2018-02-22T21:04:09.808Z,0.0
2018-02-22T21:14:23.490Z,0.0
2018-02-22T21:24:37.832Z,0.0
2018-02-22T21:34:55.452Z,0.0
2018-02-22T21:45:09.613Z,0.0
2018-02-22T21:55:54.608Z,0.0
2018-02-22T22:16:22.937Z,0.0
2018-02-22T22:26:36.528Z,0.0
2018-02-22T22:36:47.964Z,0.0
2018-02-22T22:47:02.383Z,0.0
2018-02-22T22:57:16.333Z,0.0
2018-02-22T23:07:30.685Z,0.0
2018-02-22T23:17:45.268Z,0.0
2018-02-22T23:27:59.160Z,0.0
2018-02-22T23:38:13.438Z,0.0
2018-02-22T23:48:28.000Z,0.0
2018-02-22T23:58:41.572Z,0.0
